sensor_id;sensor_type;location;lat;lon;timestamp;noise_LAeq;noise_LA_min;noise_LA_max;noise_LA01;noise_LA95
46584;Laerm;32309;48.858;8.252;2023-01-19T00:02:01;41.77;37.52;45.04;;
46584;Laerm;32309;48.858;8.252;2023-01-19T00:04:01;41.76;38.21;43.99;;
46584;Laerm;32309;48.858;8.252;2023-01-19T00:06:08;42.01;38.95;44.69;;
46584;Laerm;32309;48.858;8.252;2023-01-19T00:08:09;41.93;38.81;46.84;;
46584;Laerm;32309;48.858;8.252;2023-01-19T00:10:16;42.00;38.05;47.55;;
46584;Laerm;32309;48.858;8.252;2023-01-19T00:12:16;42.25;38.37;45.17;;
46584;Laerm;32309;48.858;8.252;2023-01-19T00:14:17;42.31;38.81;45.67;;
46584;Laerm;32309;48.858;8.252;2023-01-19T00:16:18;42.08;39.34;44.51;;
46584;Laerm;32309;48.858;8.252;2023-01-19T00:18:20;42.03;38.52;45.14;;
46584;Laerm;32309;48.858;8.252;2023-01-19T00:20:21;42.76;39.46;46.55;;
46584;Laerm;32309;48.858;8.252;2023-01-19T00:22:21;42.26;38.05;45.27;;
46584;Laerm;32309;48.858;8.252;2023-01-19T00:24:21;42.26;38.99;44.69;;
46584;Laerm;32309;48.858;8.252;2023-01-19T00:28:22;43.89;40.03;61.10;;
46584;Laerm;32309;48.858;8.252;2023-01-19T00:30:22;42.19;37.52;44.80;;
46584;Laerm;32309;48.858;8.252;2023-01-19T00:32:22;42.09;38.52;44.76;;
46584;Laerm;32309;48.858;8.252;2023-01-19T00:34:22;42.32;39.21;45.75;;
46584;Laerm;32309;48.858;8.252;2023-01-19T00:36:23;42.36;39.58;44.80;;
46584;Laerm;32309;48.858;8.252;2023-01-19T00:38:23;42.27;39.58;44.43;;
46584;Laerm;32309;48.858;8.252;2023-01-19T00:40:23;41.59;37.88;48.20;;
46584;Laerm;32309;48.858;8.252;2023-01-19T00:42:24;41.49;38.21;44.23;;
46584;Laerm;32309;48.858;8.252;2023-01-19T00:46:39;42.42;38.67;48.74;;
46584;Laerm;32309;48.858;8.252;2023-01-19T00:48:40;42.33;39.34;45.07;;
46584;Laerm;32309;48.858;8.252;2023-01-19T00:50:40;42.79;40.33;45.20;;
46584;Laerm;32309;48.858;8.252;2023-01-19T00:52:41;42.65;39.92;45.30;;
46584;Laerm;32309;48.858;8.252;2023-01-19T00:54:41;42.43;39.70;46.43;;
46584;Laerm;32309;48.858;8.252;2023-01-19T00:56:41;42.62;40.03;45.89;;
46584;Laerm;32309;48.858;8.252;2023-01-19T00:58:42;43.01;39.81;54.03;;
46584;Laerm;32309;48.858;8.252;2023-01-19T01:00:44;42.96;39.21;52.23;;
46584;Laerm;32309;48.858;8.252;2023-01-19T01:02:44;42.75;39.21;46.02;;
46584;Laerm;32309;48.858;8.252;2023-01-19T01:04:45;42.61;39.81;46.78;;
46584;Laerm;32309;48.858;8.252;2023-01-19T01:08:46;42.51;39.92;44.54;;
46584;Laerm;32309;48.858;8.252;2023-01-19T01:10:47;41.92;39.46;44.80;;
46584;Laerm;32309;48.858;8.252;2023-01-19T01:12:48;41.82;39.34;47.76;;
46584;Laerm;32309;48.858;8.252;2023-01-19T01:14:48;42.50;39.58;48.55;;
46584;Laerm;32309;48.858;8.252;2023-01-19T01:16:49;42.17;39.46;44.43;;
46584;Laerm;32309;48.858;8.252;2023-01-19T01:18:49;42.24;38.81;47.72;;
46584;Laerm;32309;48.858;8.252;2023-01-19T01:20:50;42.09;38.37;44.94;;
46584;Laerm;32309;48.858;8.252;2023-01-19T01:22:51;42.27;39.92;44.27;;
46584;Laerm;32309;48.858;8.252;2023-01-19T01:24:52;42.56;39.70;46.15;;
46584;Laerm;32309;48.858;8.252;2023-01-19T01:26:52;42.20;39.81;43.90;;
46584;Laerm;32309;48.858;8.252;2023-01-19T01:28:52;42.10;39.35;44.51;;
46584;Laerm;32309;48.858;8.252;2023-01-19T01:30:54;42.24;37.88;45.48;;
46584;Laerm;32309;48.858;8.252;2023-01-19T01:32:54;41.84;38.52;44.47;;
46584;Laerm;32309;48.858;8.252;2023-01-19T01:36:55;41.62;38.67;43.72;;
46584;Laerm;32309;48.858;8.252;2023-01-19T01:38:55;41.91;38.67;44.51;;
46584;Laerm;32309;48.858;8.252;2023-01-19T01:40:56;41.98;38.87;44.65;;
46584;Laerm;32309;48.858;8.252;2023-01-19T01:42:56;42.00;39.21;44.07;;
46584;Laerm;32309;48.858;8.252;2023-01-19T01:44:59;42.86;39.81;45.07;;
46584;Laerm;32309;48.858;8.252;2023-01-19T01:47:00;42.32;39.34;45.57;;
46584;Laerm;32309;48.858;8.252;2023-01-19T01:49:04;42.73;39.81;49.28;;
46584;Laerm;32309;48.858;8.252;2023-01-19T01:55:25;42.54;39.81;45.14;;
46584;Laerm;32309;48.858;8.252;2023-01-19T01:57:27;42.61;40.13;45.63;;
46584;Laerm;32309;48.858;8.252;2023-01-19T02:01:38;42.33;39.70;44.73;;
46584;Laerm;32309;48.858;8.252;2023-01-19T02:03:57;42.52;38.95;45.45;;
46584;Laerm;32309;48.858;8.252;2023-01-19T02:06:00;42.08;39.34;47.55;;
46584;Laerm;32309;48.858;8.252;2023-01-19T02:08:10;41.99;38.37;45.36;;
46584;Laerm;32309;48.858;8.252;2023-01-19T02:10:31;42.24;39.34;45.11;;
46584;Laerm;32309;48.858;8.252;2023-01-19T02:12:50;42.33;39.81;45.30;;
46584;Laerm;32309;48.858;8.252;2023-01-19T02:15:17;42.27;38.95;44.90;;
46584;Laerm;32309;48.858;8.252;2023-01-19T02:17:18;42.23;38.67;47.18;;
46584;Laerm;32309;48.858;8.252;2023-01-19T02:19:24;42.16;38.32;45.11;;
46584;Laerm;32309;48.858;8.252;2023-01-19T02:23:39;42.37;39.21;45.42;;
46584;Laerm;32309;48.858;8.252;2023-01-19T02:25:40;42.58;39.46;45.83;;
46584;Laerm;32309;48.858;8.252;2023-01-19T02:27:41;42.09;38.37;49.33;;
46584;Laerm;32309;48.858;8.252;2023-01-19T02:29:42;42.19;39.21;44.62;;
46584;Laerm;32309;48.858;8.252;2023-01-19T02:31:43;42.26;38.67;45.11;;
46584;Laerm;32309;48.858;8.252;2023-01-19T02:33:44;42.65;38.95;48.51;;
46584;Laerm;32309;48.858;8.252;2023-01-19T02:35:45;42.15;38.95;44.94;;
46584;Laerm;32309;48.858;8.252;2023-01-19T02:37:47;42.58;39.92;45.69;;
46584;Laerm;32309;48.858;8.252;2023-01-19T02:39:53;42.32;39.70;50.35;;
46584;Laerm;32309;48.858;8.252;2023-01-19T02:41:59;42.12;38.52;53.50;;
46584;Laerm;32309;48.858;8.252;2023-01-19T02:44:01;42.74;39.81;52.28;;
46584;Laerm;32309;48.858;8.252;2023-01-19T02:46:03;42.78;40.33;48.91;;
46584;Laerm;32309;48.858;8.252;2023-01-19T02:48:04;42.07;38.95;44.27;;
46584;Laerm;32309;48.858;8.252;2023-01-19T02:52:28;42.27;39.70;44.27;;
46584;Laerm;32309;48.858;8.252;2023-01-19T02:54:41;43.16;40.13;48.12;;
46584;Laerm;32309;48.858;8.252;2023-01-19T02:59:13;42.88;39.89;46.05;;
46584;Laerm;32309;48.858;8.252;2023-01-19T03:01:31;42.88;39.89;46.05;;
46584;Laerm;32309;48.858;8.252;2023-01-19T03:03:49;42.75;39.58;45.39;;
46584;Laerm;32309;48.858;8.252;2023-01-19T03:08:21;42.99;40.13;48.35;;
46584;Laerm;32309;48.858;8.252;2023-01-19T03:12:51;43.26;39.58;64.46;;
46584;Laerm;32309;48.858;8.252;2023-01-19T03:14:58;43.03;40.03;47.72;;
46584;Laerm;32309;48.858;8.252;2023-01-19T03:17:05;43.04;40.62;47.14;;
46584;Laerm;32309;48.858;8.252;2023-01-19T03:19:25;43.35;40.71;61.33;;
46584;Laerm;32309;48.858;8.252;2023-01-19T03:21:33;43.21;40.53;60.42;;
46584;Laerm;32309;48.858;8.252;2023-01-19T03:23:37;42.96;39.92;62.22;;
46584;Laerm;32309;48.858;8.252;2023-01-19T03:25:42;43.11;40.80;51.11;;
46584;Laerm;32309;48.858;8.252;2023-01-19T03:27:44;43.08;38.37;51.98;;
46584;Laerm;32309;48.858;8.252;2023-01-19T03:31:51;43.00;40.23;46.97;;
46584;Laerm;32309;48.858;8.252;2023-01-19T03:36:04;43.07;39.58;63.53;;
46584;Laerm;32309;48.858;8.252;2023-01-19T03:38:12;42.86;40.43;49.62;;
46584;Laerm;32309;48.858;8.252;2023-01-19T03:40:14;47.70;40.80;63.61;;
46584;Laerm;32309;48.858;8.252;2023-01-19T03:42:16;43.17;40.53;45.99;;
46584;Laerm;32309;48.858;8.252;2023-01-19T03:44:17;43.50;39.81;55.19;;
46584;Laerm;32309;48.858;8.252;2023-01-19T03:46:18;42.77;40.43;47.65;;
46584;Laerm;32309;48.858;8.252;2023-01-19T03:48:20;42.73;39.58;46.15;;
46584;Laerm;32309;48.858;8.252;2023-01-19T03:50:27;43.12;40.71;52.81;;
46584;Laerm;32309;48.858;8.252;2023-01-19T03:52:29;43.13;40.71;49.16;;
46584;Laerm;32309;48.858;8.252;2023-01-19T03:56:32;43.45;40.71;56.70;;
46584;Laerm;32309;48.858;8.252;2023-01-19T03:58:32;45.46;41.14;63.45;;
46584;Laerm;32309;48.858;8.252;2023-01-19T04:00:33;47.12;43.24;69.35;;
46584;Laerm;32309;48.858;8.252;2023-01-19T04:04:35;43.16;40.98;45.75;;
46584;Laerm;32309;48.858;8.252;2023-01-19T04:06:36;43.98;41.53;47.32;;
46584;Laerm;32309;48.858;8.252;2023-01-19T04:08:36;43.53;41.46;45.51;;
46584;Laerm;32309;48.858;8.252;2023-01-19T04:10:37;43.65;41.22;46.57;;
46584;Laerm;32309;48.858;8.252;2023-01-19T04:12:38;44.18;41.61;49.59;;
46584;Laerm;32309;48.858;8.252;2023-01-19T04:14:39;43.73;41.06;47.50;;
46584;Laerm;32309;48.858;8.252;2023-01-19T04:16:39;44.13;41.96;49.89;;
46584;Laerm;32309;48.858;8.252;2023-01-19T04:18:40;48.65;41.53;64.96;;
46584;Laerm;32309;48.858;8.252;2023-01-19T04:20:41;44.12;42.03;47.32;;
46584;Laerm;32309;48.858;8.252;2023-01-19T04:22:42;44.07;42.09;49.33;;
46584;Laerm;32309;48.858;8.252;2023-01-19T04:26:43;44.35;41.82;49.18;;
46584;Laerm;32309;48.858;8.252;2023-01-19T04:28:43;44.43;42.29;54.36;;
46584;Laerm;32309;48.858;8.252;2023-01-19T04:30:44;44.63;42.22;53.96;;
46584;Laerm;32309;48.858;8.252;2023-01-19T04:32:44;44.75;42.47;48.99;;
46584;Laerm;32309;48.858;8.252;2023-01-19T04:34:44;45.51;42.09;52.79;;
46584;Laerm;32309;48.858;8.252;2023-01-19T04:36:45;45.16;41.82;50.05;;
46584;Laerm;32309;48.858;8.252;2023-01-19T04:38:46;44.64;42.03;49.96;;
46584;Laerm;32309;48.858;8.252;2023-01-19T04:40:48;44.71;42.29;51.98;;
46584;Laerm;32309;48.858;8.252;2023-01-19T04:42:48;44.83;42.29;53.04;;
46584;Laerm;32309;48.858;8.252;2023-01-19T04:46:51;44.63;42.29;53.21;;
46584;Laerm;32309;48.858;8.252;2023-01-19T04:48:52;44.74;42.47;50.66;;
46584;Laerm;32309;48.858;8.252;2023-01-19T04:50:52;45.21;41.89;54.30;;
46584;Laerm;32309;48.858;8.252;2023-01-19T04:52:52;44.26;42.22;46.18;;
46584;Laerm;32309;48.858;8.252;2023-01-19T04:56:53;45.02;42.47;56.05;;
46584;Laerm;32309;48.858;8.252;2023-01-19T04:58:53;45.98;42.71;56.76;;
46584;Laerm;32309;48.858;8.252;2023-01-19T05:00:54;44.91;42.47;54.95;;
46584;Laerm;32309;48.858;8.252;2023-01-19T05:04:54;46.67;43.68;51.50;;
46584;Laerm;32309;48.858;8.252;2023-01-19T05:06:54;46.30;43.09;52.39;;
46584;Laerm;32309;48.858;8.252;2023-01-19T05:08:57;47.18;43.34;52.67;;
46584;Laerm;32309;48.858;8.252;2023-01-19T05:10:57;46.91;43.86;51.03;;
46584;Laerm;32309;48.858;8.252;2023-01-19T05:12:58;46.59;43.63;51.09;;
46584;Laerm;32309;48.858;8.252;2023-01-19T05:14:58;47.20;43.94;53.16;;
46584;Laerm;32309;48.858;8.252;2023-01-19T05:16:59;47.15;43.19;54.04;;
46584;Laerm;32309;48.858;8.252;2023-01-19T05:19:01;47.36;43.81;57.75;;
46584;Laerm;32309;48.858;8.252;2023-01-19T05:21:02;47.06;43.49;52.63;;
46584;Laerm;32309;48.858;8.252;2023-01-19T05:23:03;45.68;43.04;50.01;;
46584;Laerm;32309;48.858;8.252;2023-01-19T05:25:05;46.53;43.04;58.99;;
46584;Laerm;32309;48.858;8.252;2023-01-19T05:27:07;46.25;43.04;54.76;;
46584;Laerm;32309;48.858;8.252;2023-01-19T05:29:08;46.99;43.44;54.95;;
46584;Laerm;32309;48.858;8.252;2023-01-19T05:31:09;49.60;43.77;61.03;;
46584;Laerm;32309;48.858;8.252;2023-01-19T05:33:09;46.71;43.14;54.67;;
46584;Laerm;32309;48.858;8.252;2023-01-19T05:35:10;46.48;43.72;52.99;;
46584;Laerm;32309;48.858;8.252;2023-01-19T05:42:57;45.85;42.93;52.04;;
46584;Laerm;32309;48.858;8.252;2023-01-19T05:45:06;45.91;43.09;58.76;;
46584;Laerm;32309;48.858;8.252;2023-01-19T05:58:46;45.10;42.19;52.00;;
46584;Laerm;32309;48.858;8.252;2023-01-19T06:00:46;48.51;42.41;64.68;;
46584;Laerm;32309;48.858;8.252;2023-01-19T06:02:46;46.15;42.71;59.81;;
46584;Laerm;32309;48.858;8.252;2023-01-19T06:04:48;47.53;43.04;57.79;;
46584;Laerm;32309;48.858;8.252;2023-01-19T06:06:49;45.97;42.88;55.95;;
46584;Laerm;32309;48.858;8.252;2023-01-19T06:08:49;47.31;42.65;59.46;;
46584;Laerm;32309;48.858;8.252;2023-01-19T06:10:49;46.30;43.09;53.77;;
46584;Laerm;32309;48.858;8.252;2023-01-19T06:12:50;45.31;42.41;54.03;;
46584;Laerm;32309;48.858;8.252;2023-01-19T06:14:51;45.76;42.35;54.05;;
46584;Laerm;32309;48.858;8.252;2023-01-19T06:16:52;46.56;43.04;55.75;;
46584;Laerm;32309;48.858;8.252;2023-01-19T06:20:52;46.41;42.98;52.36;;
46584;Laerm;32309;48.858;8.252;2023-01-19T06:24:57;47.94;43.44;63.78;;
46584;Laerm;32309;48.858;8.252;2023-01-19T06:26:58;46.04;43.39;51.87;;
46584;Laerm;32309;48.858;8.252;2023-01-19T06:28:59;47.11;43.09;55.43;;
46584;Laerm;32309;48.858;8.252;2023-01-19T06:33:00;46.79;42.93;68.11;;
46584;Laerm;32309;48.858;8.252;2023-01-19T06:35:00;50.37;42.82;67.32;;
46584;Laerm;32309;48.858;8.252;2023-01-19T06:37:01;46.76;42.82;61.65;;
46584;Laerm;32309;48.858;8.252;2023-01-19T06:39:01;54.29;43.04;73.06;;
46584;Laerm;32309;48.858;8.252;2023-01-19T06:41:04;48.18;42.82;60.89;;
46584;Laerm;32309;48.858;8.252;2023-01-19T06:43:05;51.60;42.98;67.75;;
46584;Laerm;32309;48.858;8.252;2023-01-19T06:45:07;46.89;42.65;56.09;;
46584;Laerm;32309;48.858;8.252;2023-01-19T06:47:09;45.90;43.05;65.24;;
46584;Laerm;32309;48.858;8.252;2023-01-19T06:49:09;46.35;42.88;59.08;;
46584;Laerm;32309;48.858;8.252;2023-01-19T06:51:09;46.04;43.24;54.72;;
46584;Laerm;32309;48.858;8.252;2023-01-19T06:53:09;47.67;41.96;61.42;;
46584;Laerm;32309;48.858;8.252;2023-01-19T06:55:10;45.39;42.35;58.48;;
46584;Laerm;32309;48.858;8.252;2023-01-19T06:57:12;46.84;42.88;59.25;;
46584;Laerm;32309;48.858;8.252;2023-01-19T06:59:12;46.29;42.98;56.43;;
46584;Laerm;32309;48.858;8.252;2023-01-19T07:01:13;47.26;43.19;62.06;;
46584;Laerm;32309;48.858;8.252;2023-01-19T07:07:21;45.42;42.47;56.68;;
46584;Laerm;32309;48.858;8.252;2023-01-19T07:09:21;45.71;42.82;55.54;;
46584;Laerm;32309;48.858;8.252;2023-01-19T07:11:23;45.80;42.24;58.72;;
46584;Laerm;32309;48.858;8.252;2023-01-19T07:15:24;46.59;42.93;63.20;;
46584;Laerm;32309;48.858;8.252;2023-01-19T07:17:25;45.87;43.19;52.83;;
46584;Laerm;32309;48.858;8.252;2023-01-19T07:19:25;48.56;43.09;63.90;;
46584;Laerm;32309;48.858;8.252;2023-01-19T07:21:25;46.38;43.04;62.19;;
46584;Laerm;32309;48.858;8.252;2023-01-19T07:23:26;56.60;42.76;67.91;;
46584;Laerm;32309;48.858;8.252;2023-01-19T07:25:29;57.55;54.61;69.54;;
46584;Laerm;32309;48.858;8.252;2023-01-19T07:27:30;47.44;42.09;61.54;;
46584;Laerm;32309;48.858;8.252;2023-01-19T07:29:30;47.44;42.09;61.54;;
46584;Laerm;32309;48.858;8.252;2023-01-19T07:31:30;48.75;42.65;64.42;;
46584;Laerm;32309;48.858;8.252;2023-01-19T07:33:30;46.29;42.53;63.70;;
46584;Laerm;32309;48.858;8.252;2023-01-19T07:35:31;45.90;42.71;57.81;;
46584;Laerm;32309;48.858;8.252;2023-01-19T07:37:31;47.78;41.53;60.16;;
46584;Laerm;32309;48.858;8.252;2023-01-19T07:39:31;46.26;42.59;58.02;;
46584;Laerm;32309;48.858;8.252;2023-01-19T07:41:32;45.92;42.53;54.09;;
46584;Laerm;32309;48.858;8.252;2023-01-19T07:45:34;45.37;42.03;57.47;;
46584;Laerm;32309;48.858;8.252;2023-01-19T07:47:34;49.16;42.82;66.18;;
46584;Laerm;32309;48.858;8.252;2023-01-19T07:49:34;45.01;42.53;51.67;;
46584;Laerm;32309;48.858;8.252;2023-01-19T07:51:35;48.27;42.90;63.93;;
46584;Laerm;32309;48.858;8.252;2023-01-19T07:53:35;45.39;42.93;54.87;;
46584;Laerm;32309;48.858;8.252;2023-01-19T07:55:35;45.55;42.29;51.48;;
46584;Laerm;32309;48.858;8.252;2023-01-19T07:57:36;46.23;42.93;53.56;;
46584;Laerm;32309;48.858;8.252;2023-01-19T07:59:36;45.82;42.93;55.31;;
46584;Laerm;32309;48.858;8.252;2023-01-19T08:01:37;45.82;42.35;51.28;;
46584;Laerm;32309;48.858;8.252;2023-01-19T08:03:38;51.70;43.09;68.80;;
46584;Laerm;32309;48.858;8.252;2023-01-19T08:05:38;45.32;42.88;57.31;;
46584;Laerm;32309;48.858;8.252;2023-01-19T08:07:39;48.47;43.49;60.59;;
46584;Laerm;32309;48.858;8.252;2023-01-19T08:09:40;47.29;42.98;64.41;;
46584;Laerm;32309;48.858;8.252;2023-01-19T08:11:40;47.43;43.58;58.15;;
46584;Laerm;32309;48.858;8.252;2023-01-19T08:13:41;45.73;42.65;50.96;;
46584;Laerm;32309;48.858;8.252;2023-01-19T08:15:42;50.69;42.93;66.39;;
46584;Laerm;32309;48.858;8.252;2023-01-19T08:17:42;46.61;43.24;56.39;;
46584;Laerm;32309;48.858;8.252;2023-01-19T08:19:42;48.19;43.04;63.16;;
46584;Laerm;32309;48.858;8.252;2023-01-19T08:21:44;45.97;43.09;58.92;;
46584;Laerm;32309;48.858;8.252;2023-01-19T08:25:53;46.75;42.98;61.62;;
46584;Laerm;32309;48.858;8.252;2023-01-19T08:27:54;46.48;43.14;58.25;;
46584;Laerm;32309;48.858;8.252;2023-01-19T08:29:54;46.14;43.09;55.53;;
46584;Laerm;32309;48.858;8.252;2023-01-19T08:31:55;46.33;43.39;56.73;;
46584;Laerm;32309;48.858;8.252;2023-01-19T08:35:58;48.63;42.93;62.16;;
46584;Laerm;32309;48.858;8.252;2023-01-19T08:37:58;52.18;43.49;67.41;;
46584;Laerm;32309;48.858;8.252;2023-01-19T08:40:00;47.11;43.54;54.60;;
46584;Laerm;32309;48.858;8.252;2023-01-19T08:42:00;46.79;43.34;56.08;;
46584;Laerm;32309;48.858;8.252;2023-01-19T08:44:01;46.90;43.14;61.50;;
46584;Laerm;32309;48.858;8.252;2023-01-19T08:49:17;46.41;43.24;54.20;;
46584;Laerm;32309;48.858;8.252;2023-01-19T08:51:27;45.53;42.47;54.94;;
46584;Laerm;32309;48.858;8.252;2023-01-19T08:53:30;47.00;43.24;56.67;;
46584;Laerm;32309;48.858;8.252;2023-01-19T08:58:51;46.92;43.09;60.99;;
46584;Laerm;32309;48.858;8.252;2023-01-19T09:00:52;46.76;43.29;63.41;;
46584;Laerm;32309;48.858;8.252;2023-01-19T09:02:52;46.35;43.39;55.44;;
46584;Laerm;32309;48.858;8.252;2023-01-19T09:04:53;48.71;43.24;63.41;;
46584;Laerm;32309;48.858;8.252;2023-01-19T09:06:53;46.24;42.76;54.27;;
46584;Laerm;32309;48.858;8.252;2023-01-19T09:10:54;45.84;42.71;53.57;;
46584;Laerm;32309;48.858;8.252;2023-01-19T09:12:54;46.66;43.19;57.77;;
46584;Laerm;32309;48.858;8.252;2023-01-19T09:14:54;45.61;42.47;50.31;;
46584;Laerm;32309;48.858;8.252;2023-01-19T09:16:55;48.12;42.88;62.36;;
46584;Laerm;32309;48.858;8.252;2023-01-19T09:18:55;45.68;42.71;70.11;;
46584;Laerm;32309;48.858;8.252;2023-01-19T09:20:56;46.79;42.53;67.63;;
46584;Laerm;32309;48.858;8.252;2023-01-19T09:22:57;49.97;42.35;66.78;;
46584;Laerm;32309;48.858;8.252;2023-01-19T09:26:57;45.00;42.09;55.70;;
46584;Laerm;32309;48.858;8.252;2023-01-19T09:29:01;45.71;42.22;52.28;;
46584;Laerm;32309;48.858;8.252;2023-01-19T09:31:31;45.71;42.22;52.28;;
46584;Laerm;32309;48.858;8.252;2023-01-19T09:38:01;45.18;42.16;58.01;;
46584;Laerm;32309;48.858;8.252;2023-01-19T09:40:03;45.26;42.29;60.75;;
46584;Laerm;32309;48.858;8.252;2023-01-19T09:42:32;45.87;41.61;59.45;;
46584;Laerm;32309;48.858;8.252;2023-01-19T09:44:35;50.42;42.03;79.71;;
46584;Laerm;32309;48.858;8.252;2023-01-19T09:46:40;49.49;42.35;70.70;;
46584;Laerm;32309;48.858;8.252;2023-01-19T09:49:32;47.58;41.48;72.78;;
46584;Laerm;32309;48.858;8.252;2023-01-19T09:51:12;44.64;42.03;52.48;;
46584;Laerm;32309;48.858;8.252;2023-01-19T09:53:49;47.78;43.04;62.91;;
46584;Laerm;32309;48.858;8.252;2023-01-19T09:55:50;48.44;42.29;64.56;;
46584;Laerm;32309;48.858;8.252;2023-01-19T09:57:51;47.39;42.76;58.80;;
46584;Laerm;32309;48.858;8.252;2023-01-19T09:59:51;48.78;41.75;70.41;;
46584;Laerm;32309;48.858;8.252;2023-01-19T10:06:06;45.11;41.53;61.37;;
46584;Laerm;32309;48.858;8.252;2023-01-19T10:10:28;48.67;42.47;62.47;;
46584;Laerm;32309;48.858;8.252;2023-01-19T10:15:03;49.02;41.82;65.35;;
46584;Laerm;32309;48.858;8.252;2023-01-19T10:19:46;49.03;43.19;64.09;;
46584;Laerm;32309;48.858;8.252;2023-01-19T10:21:49;45.46;42.03;53.05;;
46584;Laerm;32309;48.858;8.252;2023-01-19T10:24:00;46.06;42.88;64.59;;
46584;Laerm;32309;48.858;8.252;2023-01-19T10:26:08;47.10;43.09;64.73;;
46584;Laerm;32309;48.858;8.252;2023-01-19T10:28:12;45.59;42.65;58.29;;
46584;Laerm;32309;48.858;8.252;2023-01-19T10:30:22;46.30;42.98;59.48;;
46584;Laerm;32309;48.858;8.252;2023-01-19T10:32:33;48.22;43.24;74.11;;
46584;Laerm;32309;48.858;8.252;2023-01-19T10:34:35;47.16;43.77;55.97;;
46584;Laerm;32309;48.858;8.252;2023-01-19T10:36:37;46.92;43.63;58.44;;
46584;Laerm;32309;48.858;8.252;2023-01-19T10:38:39;47.18;43.81;57.99;;
46584;Laerm;32309;48.858;8.252;2023-01-19T10:40:51;46.50;43.44;55.65;;
46584;Laerm;32309;48.858;8.252;2023-01-19T10:42:56;47.88;43.94;54.72;;
46584;Laerm;32309;48.858;8.252;2023-01-19T10:44:59;46.63;43.58;63.29;;
46584;Laerm;32309;48.858;8.252;2023-01-19T10:49:01;47.83;43.54;70.89;;
46584;Laerm;32309;48.858;8.252;2023-01-19T10:51:03;46.97;43.49;56.13;;
46584;Laerm;32309;48.858;8.252;2023-01-19T10:53:05;49.37;44.15;74.13;;
46584;Laerm;32309;48.858;8.252;2023-01-19T10:55:36;46.75;43.58;57.74;;
46584;Laerm;32309;48.858;8.252;2023-01-19T10:57:40;49.77;43.81;74.91;;
46584;Laerm;32309;48.858;8.252;2023-01-19T10:59:47;46.63;42.76;59.82;;
46584;Laerm;32309;48.858;8.252;2023-01-19T11:04:26;48.85;43.77;59.67;;
46584;Laerm;32309;48.858;8.252;2023-01-19T11:06:29;48.37;42.98;58.74;;
46584;Laerm;32309;48.858;8.252;2023-01-19T11:10:30;46.77;43.44;54.26;;
46584;Laerm;32309;48.858;8.252;2023-01-19T11:14:30;47.94;43.44;66.13;;
46584;Laerm;32309;48.858;8.252;2023-01-19T11:16:31;47.09;43.68;59.88;;
46584;Laerm;32309;48.858;8.252;2023-01-19T11:18:36;47.28;43.44;56.60;;
46584;Laerm;32309;48.858;8.252;2023-01-19T11:20:52;50.09;43.39;67.05;;
46584;Laerm;32309;48.858;8.252;2023-01-19T11:23:04;46.67;42.98;59.71;;
46584;Laerm;32309;48.858;8.252;2023-01-19T11:25:05;48.62;42.93;62.11;;
46584;Laerm;32309;48.858;8.252;2023-01-19T11:27:05;47.09;43.54;53.24;;
46584;Laerm;32309;48.858;8.252;2023-01-19T11:35:44;46.47;42.47;56.81;;
46584;Laerm;32309;48.858;8.252;2023-01-19T11:37:44;46.46;42.93;52.90;;
46584;Laerm;32309;48.858;8.252;2023-01-19T11:39:47;47.45;43.04;61.13;;
46584;Laerm;32309;48.858;8.252;2023-01-19T11:43:55;45.74;42.22;58.02;;
46584;Laerm;32309;48.858;8.252;2023-01-19T11:45:56;47.00;42.16;59.33;;
46584;Laerm;32309;48.858;8.252;2023-01-19T11:48:03;45.47;42.24;54.66;;
46584;Laerm;32309;48.858;8.252;2023-01-19T11:50:20;45.06;42.16;51.62;;
46584;Laerm;32309;48.858;8.252;2023-01-19T11:52:31;46.17;42.93;52.47;;
46584;Laerm;32309;48.858;8.252;2023-01-19T11:54:35;53.65;43.19;66.32;;
46584;Laerm;32309;48.858;8.252;2023-01-19T11:56:40;46.94;42.93;54.17;;
46584;Laerm;32309;48.858;8.252;2023-01-19T11:58:43;46.30;42.71;53.65;;
46584;Laerm;32309;48.858;8.252;2023-01-19T12:01:21;45.89;42.29;54.65;;
46584;Laerm;32309;48.858;8.252;2023-01-19T12:03:30;46.27;43.09;55.79;;
46584;Laerm;32309;48.858;8.252;2023-01-19T12:05:34;46.81;42.90;54.54;;
46584;Laerm;32309;48.858;8.252;2023-01-19T12:07:38;46.76;43.09;57.34;;
46584;Laerm;32309;48.858;8.252;2023-01-19T12:09:46;46.12;42.76;60.50;;
46584;Laerm;32309;48.858;8.252;2023-01-19T12:11:57;47.01;42.98;63.27;;
46584;Laerm;32309;48.858;8.252;2023-01-19T12:14:01;46.30;42.93;57.77;;
46584;Laerm;32309;48.858;8.252;2023-01-19T12:16:07;47.54;42.24;59.40;;
46584;Laerm;32309;48.858;8.252;2023-01-19T12:18:21;46.03;42.65;56.27;;
46584;Laerm;32309;48.858;8.252;2023-01-19T12:20:26;50.60;43.24;63.35;;
46584;Laerm;32309;48.858;8.252;2023-01-19T12:22:40;57.43;43.19;77.18;;
46584;Laerm;32309;48.858;8.252;2023-01-19T12:24:53;61.75;44.07;90.57;;
46584;Laerm;32309;48.858;8.252;2023-01-19T12:26:55;46.03;42.47;60.08;;
46584;Laerm;32309;48.858;8.252;2023-01-19T12:29:01;45.35;42.74;51.96;;
46584;Laerm;32309;48.858;8.252;2023-01-19T12:31:03;46.02;42.00;60.84;;
46584;Laerm;32309;48.858;8.252;2023-01-19T12:33:30;46.82;42.93;62.15;;
46584;Laerm;32309;48.858;8.252;2023-01-19T12:40:39;49.22;43.24;61.37;;
46584;Laerm;32309;48.858;8.252;2023-01-19T12:45:21;45.62;42.41;61.72;;
46584;Laerm;32309;48.858;8.252;2023-01-19T12:47:24;45.86;42.09;53.54;;
46584;Laerm;32309;48.858;8.252;2023-01-19T12:51:36;45.40;42.98;55.32;;
46584;Laerm;32309;48.858;8.252;2023-01-19T12:53:53;49.51;43.49;62.92;;
46584;Laerm;32309;48.858;8.252;2023-01-19T12:56:04;48.97;43.29;69.59;;
46584;Laerm;32309;48.858;8.252;2023-01-19T12:58:21;50.12;43.24;64.20;;
46584;Laerm;32309;48.858;8.252;2023-01-19T13:04:32;47.85;43.09;59.11;;
46584;Laerm;32309;48.858;8.252;2023-01-19T13:08:56;45.92;42.53;60.50;;
46584;Laerm;32309;48.858;8.252;2023-01-19T13:17:43;46.61;42.93;58.72;;
46584;Laerm;32309;48.858;8.252;2023-01-19T13:21:50;45.95;43.19;50.52;;
46584;Laerm;32309;48.858;8.252;2023-01-19T13:23:55;49.71;43.58;65.19;;
46584;Laerm;32309;48.858;8.252;2023-01-19T13:26:05;46.76;42.53;57.51;;
46584;Laerm;32309;48.858;8.252;2023-01-19T13:28:08;52.61;42.98;66.83;;
46584;Laerm;32309;48.858;8.252;2023-01-19T13:30:14;51.00;44.12;70.18;;
46584;Laerm;32309;48.858;8.252;2023-01-19T13:32:17;50.75;44.47;61.16;;
46584;Laerm;32309;48.858;8.252;2023-01-19T13:34:22;48.17;44.54;58.89;;
46584;Laerm;32309;48.858;8.252;2023-01-19T13:36:28;48.28;45.07;53.48;;
46584;Laerm;32309;48.858;8.252;2023-01-19T13:38:29;49.43;44.23;68.30;;
46584;Laerm;32309;48.858;8.252;2023-01-19T13:42:40;46.25;42.93;52.71;;
46584;Laerm;32309;48.858;8.252;2023-01-19T13:44:45;47.47;43.68;62.67;;
46584;Laerm;32309;48.858;8.252;2023-01-19T13:46:51;47.52;43.94;54.19;;
46584;Laerm;32309;48.858;8.252;2023-01-19T13:49:08;50.60;43.24;79.19;;
46584;Laerm;32309;48.858;8.252;2023-01-19T13:51:16;49.03;43.90;70.10;;
46584;Laerm;32309;48.858;8.252;2023-01-19T13:53:18;47.41;43.72;55.99;;
46584;Laerm;32309;48.858;8.252;2023-01-19T13:59:26;46.54;42.93;58.38;;
46584;Laerm;32309;48.858;8.252;2023-01-19T14:03:26;46.36;42.88;59.82;;
46584;Laerm;32309;48.858;8.252;2023-01-19T14:07:31;45.93;41.75;54.40;;
46584;Laerm;32309;48.858;8.252;2023-01-19T14:09:32;45.94;42.03;66.11;;